West Salem, OH (44287)

1:10 PM EDT on April 26, 2017 (GMT -0400)
Sullivan Ohio | | Change Station

Elev 1143 ft 41.02 °N, 82.18 °W | Updated 10 seconds ago

Partly Cloudy
Partly Cloudy
72.5 °F
Feels Like 76 °F
N
11.0
Wind Variable Wind from ESE

Today
High -- | Low -- °F
--% Chance of Precip.
Yesterday
High -- | Low -- °F
Precip. -- in
Pressure 29.71 in
Visibility 10.0 miles
Clouds Clear
Heat Index 76 °F
Dew Point 59 °F
Humidity 63%
Rainfall 0.00 in
Snow Depth Not available.
6:32 AM 8:20 PM
New Moon, 0% visible
METAR KBJJ 261656Z AUTO 18012KT 10SM CLR 22/14 A2972 RMK AO2 SLP059 T02220144
Pressure 29.71 in
Visibility 10.0 miles
Clouds Clear
Heat Index 76 °F
Dew Point 59 °F
Humidity 63%
Rainfall 0.00 in
Snow Depth Not available.
6:32 AM 8:20 PM
New Moon, 0% visible
METAR KBJJ 261656Z AUTO 18012KT 10SM CLR 22/14 A2972 RMK AO2 SLP059 T02220144

Get Severe Weather Alerts

Thanks for signing up!

Be on the lookout for a verification email in your inbox.

You'll start receiving the daily forecast at 8 AM.

×

10-Day Weather Forecast

Almanac

Astronomy

Apr. 26, 2017 Rise Set
Actual Time
Civil Twilight
Nautical Twilight
Astronomical Twilight
Moon
Length of Visible Light
Length of Day
Tomorrow will be .
, % of the Moon is Illuminated

Today's Extremes

State Highs State Lows

Community

WunderPhotos

WunderBlog® & News

Nearby

Air Quality

  Air Quality AQ Index Pollutant
Not available.

Snow Depth

Station Depth Elevation

Earthquake Activity

City Distance Mag. Time & Date
Minimum magnitude displayed is 2.5.

Coastal Water Temperatures

Place Temperature

Stations

Nearby Weather Stations

Station Location Temp. Windchill Dew Point Humidity Wind Precip. Elev Updated Type
                   

Watches & Warnings

There are currently no watches in effect.